Time;durP1;ratioP1;P1;durP2;ratioP2;P2;SDS_P1;SDS_P2;PMS_P1;PMS_P2;Temp;Humidity;BMP_temperature;BMP_pressure;BME280_temperature;BME280_humidity;BME280_pressure;Samples;Min_cycle;Max_cycle;Signal;HPM_P1;HPM_P2
2022/03/12 00:01:51;;;;;;;;;2.67;2.67;;;;;;;;5039235;28;45317;-79
2022/03/12 00:04:17;;;;;;;;;3.00;3.00;;;;;;;;5039017;28;45295;-79
2022/03/12 00:06:42;;;;;;;;;3.00;3.00;;;;;;;;5038368;28;46296;-79
2022/03/12 00:09:07;;;;;;;;;2.50;2.50;;;;;;;;5039128;28;45357;-79
2022/03/12 00:11:34;;;;;;;;;3.00;3.00;;;;;;;;5039117;28;45292;-79
2022/03/12 00:14:02;;;;;;;;;3.00;3.00;;;;;;;;5038835;28;45214;-79
2022/03/12 00:16:27;;;;;;;;;3.33;3.00;;;;;;;;5069184;28;48221;-79
2022/03/12 00:18:58;;;;;;;;;3.67;3.00;;;;;;;;5079153;28;45270;-79
2022/03/12 00:21:24;;;;;;;;;3.00;3.00;;;;;;;;5079211;27;45306;-79
2022/03/12 00:23:50;;;;;;;;;3.33;3.33;;;;;;;;5079106;27;45280;-79
2022/03/12 00:26:17;;;;;;;;;4.00;4.00;;;;;;;;5078748;27;45248;-79
2022/03/12 00:28:43;;;;;;;;;4.00;3.00;;;;;;;;5079166;27;45293;-79
2022/03/12 00:31:09;;;;;;;;;3.00;3.00;;;;;;;;5079282;27;45538;-78
2022/03/12 00:33:35;;;;;;;;;4.00;4.00;;;;;;;;5078942;27;45353;-79
2022/03/12 00:36:02;;;;;;;;;2.00;2.00;;;;;;;;5079030;27;46397;-80
2022/03/12 00:38:27;;;;;;;;;3.67;3.67;;;;;;;;5077849;28;45370;-79
2022/03/12 00:40:53;;;;;;;;;5.67;3.33;;;;;;;;5082598;27;45290;-79
2022/03/12 00:43:18;;;;;;;;;2.67;2.67;;;;;;;;5080929;28;46407;-79
2022/03/12 00:45:44;;;;;;;;;4.00;4.00;;;;;;;;5082357;27;45272;-79
2022/03/12 00:48:09;;;;;;;;;3.67;3.67;;;;;;;;5081000;28;45427;-79
2022/03/12 00:50:35;;;;;;;;;3.00;3.00;;;;;;;;5082553;28;45196;-79
2022/03/12 00:53:00;;;;;;;;;4.67;3.67;;;;;;;;5081937;27;45171;-79
2022/03/12 00:55:26;;;;;;;;;2.00;2.00;;;;;;;;5080935;28;46525;-79
2022/03/12 00:57:51;;;;;;;;;3.00;3.00;;;;;;;;5082179;27;45722;-79
2022/03/12 01:00:18;;;;;;;;;4.00;4.00;;;;;;;;5082443;27;45319;-79
2022/03/12 01:02:44;;;;;;;;;3.67;3.67;;;;;;;;5082081;28;45311;-79
2022/03/12 01:05:10;;;;;;;;;3.33;3.33;;;;;;;;5080425;28;47082;-79
2022/03/12 01:07:35;;;;;;;;;4.00;4.00;;;;;;;;5081582;27;45664;-79
2022/03/12 01:10:01;;;;;;;;;1.33;1.33;;;;;;;;5082074;27;45679;-79
2022/03/12 01:12:26;;;;;;;;;4.00;3.00;;;;;;;;5082059;27;45443;-80
2022/03/12 01:14:51;;;;;;;;;3.00;3.00;;;;;;;;5079132;27;46325;-79
2022/03/12 01:17:17;;;;;;;;;3.33;3.33;;;;;;;;5061743;28;45319;-79
2022/03/12 01:19:42;;;;;;;;;2.33;2.33;;;;;;;;5061769;28;45373;-79
2022/03/12 01:22:07;;;;;;;;;5.00;3.00;;;;;;;;5059836;28;47135;-79
2022/03/12 01:24:34;;;;;;;;;3.00;3.00;;;;;;;;5060194;28;47053;-79
2022/03/12 01:26:59;;;;;;;;;2.00;2.00;;;;;;;;5059985;28;45330;-79
2022/03/12 01:29:25;;;;;;;;;3.67;3.67;;;;;;;;5060154;28;45263;-79
2022/03/12 01:31:51;;;;;;;;;3.33;3.33;;;;;;;;5061223;28;45196;-79
2022/03/12 01:34:17;;;;;;;;;3.00;2.33;;;;;;;;5061186;28;45236;-80
2022/03/12 01:36:42;;;;;;;;;2.67;2.67;;;;;;;;5061041;28;45207;-79
2022/03/12 01:39:07;;;;;;;;;3.67;3.67;;;;;;;;5060120;28;45239;-80
2022/03/12 01:41:38;;;;;;;;;3.00;3.00;;;;;;;;5061295;28;45284;-79
2022/03/12 01:44:04;;;;;;;;;3.00;3.00;;;;;;;;5059503;28;47538;-79
2022/03/12 01:46:34;;;;;;;;;3.33;3.33;;;;;;;;5061225;28;45461;-79
2022/03/12 01:49:02;;;;;;;;;2.00;2.00;;;;;;;;5061167;28;45398;-79
2022/03/12 01:51:27;;;;;;;;;2.00;2.00;;;;;;;;5059232;28;45889;-79
2022/03/12 01:53:53;;;;;;;;;4.00;4.00;;;;;;;;5059284;28;47264;-79
2022/03/12 01:56:18;;;;;;;;;3.00;3.00;;;;;;;;5059754;28;45288;-79
2022/03/12 01:58:50;;;;;;;;;3.33;2.00;;;;;;;;5061067;28;45273;-79
2022/03/12 02:01:15;;;;;;;;;3.33;3.33;;;;;;;;5060921;28;45528;-79
2022/03/12 02:03:40;;;;;;;;;2.67;2.00;;;;;;;;5059488;28;47259;-79
2022/03/12 02:06:06;;;;;;;;;3.00;3.00;;;;;;;;5059225;28;45971;-79
2022/03/12 02:08:31;;;;;;;;;2.00;2.00;;;;;;;;5060504;28;45360;-79
2022/03/12 02:10:59;;;;;;;;;3.00;3.00;;;;;;;;5060729;28;45320;-78
2022/03/12 02:13:24;;;;;;;;;3.67;3.00;;;;;;;;5060654;28;45496;-80
2022/03/12 02:15:51;;;;;;;;;2.33;2.33;;;;;;;;5071368;28;45261;-78
2022/03/12 02:18:16;;;;;;;;;3.00;3.00;;;;;;;;5062780;28;45252;-79
2022/03/12 02:20:41;;;;;;;;;2.00;2.00;;;;;;;;5080942;27;45222;-79
2022/03/12 02:23:08;;;;;;;;;3.00;3.00;;;;;;;;5080485;28;45282;-79
2022/03/12 02:25:33;;;;;;;;;4.00;4.00;;;;;;;;5080765;27;45381;-79
2022/03/12 02:27:59;;;;;;;;;3.00;3.00;;;;;;;;5080854;27;45332;-79
2022/03/12 02:30:36;;;;;;;;;2.67;2.00;;;;;;;;5080742;28;45523;-79
2022/03/12 02:33:02;;;;;;;;;3.67;3.67;;;;;;;;5080618;28;46179;-79
2022/03/12 02:35:33;;;;;;;;;4.00;4.00;;;;;;;;5080493;27;45732;-80
2022/03/12 02:37:59;;;;;;;;;3.67;3.00;;;;;;;;5079104;28;45326;-79
2022/03/12 02:40:24;;;;;;;;;3.67;3.67;;;;;;;;5080518;27;45384;-79
2022/03/12 02:42:50;;;;;;;;;4.67;3.33;;;;;;;;5080408;27;45999;-79
2022/03/12 02:45:15;;;;;;;;;3.00;3.00;;;;;;;;5080621;27;45363;-79
2022/03/12 02:47:42;;;;;;;;;4.00;4.00;;;;;;;;5079175;28;45391;-79
2022/03/12 02:50:08;;;;;;;;;5.00;4.00;;;;;;;;5080413;27;45356;-79
2022/03/12 02:52:41;;;;;;;;;3.00;3.00;;;;;;;;5079952;28;46033;-79
2022/03/12 02:55:08;;;;;;;;;4.00;3.00;;;;;;;;5078889;28;45395;-79
2022/03/12 02:57:33;;;;;;;;;3.33;3.33;;;;;;;;5079205;28;45356;-79
2022/03/12 03:00:04;;;;;;;;;3.00;3.00;;;;;;;;5080276;27;45404;-79
2022/03/12 03:02:40;;;;;;;;;4.00;3.00;;;;;;;;5078383;28;47956;-79
2022/03/12 03:08:02;;;;;;;;;4.33;2.33;;;;;;;;5079584;27;45426;-79
2022/03/12 03:10:34;;;;;;;;;2.00;2.00;;;;;;;;5080102;27;45460;-80
2022/03/12 03:13:21;;;;;;;;;2.33;2.33;;;;;;;;5078412;28;47205;-79
2022/03/12 03:15:47;;;;;;;;;3.00;3.00;;;;;;;;5062455;28;45490;-79
2022/03/12 03:18:15;;;;;;;;;5.00;5.00;;;;;;;;5058517;28;45425;-79
2022/03/12 03:20:41;;;;;;;;;3.00;3.00;;;;;;;;5059788;28;45161;-79
2022/03/12 03:23:07;;;;;;;;;3.00;3.00;;;;;;;;5057846;28;47974;-79
2022/03/12 03:25:32;;;;;;;;;4.33;3.67;;;;;;;;5059634;28;45312;-79
2022/03/12 03:27:58;;;;;;;;;3.00;2.00;;;;;;;;5059722;28;45476;-79
2022/03/12 03:30:23;;;;;;;;;3.67;2.67;;;;;;;;5059685;28;45420;-79
2022/03/12 03:32:48;;;;;;;;;2.33;2.33;;;;;;;;5059575;28;45555;-80
2022/03/12 03:35:14;;;;;;;;;2.00;2.00;;;;;;;;5059629;28;45285;-80
2022/03/12 03:37:39;;;;;;;;;4.00;4.00;;;;;;;;5058159;28;45416;-79
2022/03/12 03:40:05;;;;;;;;;3.00;3.00;;;;;;;;5059513;28;45307;-79
2022/03/12 03:42:30;;;;;;;;;4.33;2.33;;;;;;;;5057978;28;46215;-79
2022/03/12 03:44:59;;;;;;;;;2.00;2.00;;;;;;;;5059472;28;45385;-79
2022/03/12 03:47:25;;;;;;;;;5.33;3.00;;;;;;;;5059497;28;45215;-78
2022/03/12 03:49:50;;;;;;;;;3.00;3.00;;;;;;;;5059287;28;45543;-79
2022/03/12 03:52:15;;;;;;;;;3.00;2.00;;;;;;;;5057574;28;47459;-79
2022/03/12 03:54:41;;;;;;;;;2.00;2.00;;;;;;;;5059298;28;45324;-79
2022/03/12 03:57:06;;;;;;;;;2.67;2.67;;;;;;;;5058008;28;45266;-79
2022/03/12 03:59:31;;;;;;;;;2.00;2.00;;;;;;;;5059233;28;45276;-79
2022/03/12 04:01:56;;;;;;;;;2.33;2.00;;;;;;;;5059204;28;46016;-79
2022/03/12 04:04:22;;;;;;;;;2.00;2.00;;;;;;;;5059360;28;45186;-79
2022/03/12 04:06:47;;;;;;;;;2.00;2.00;;;;;;;;5058997;28;45292;-79
2022/03/12 04:09:12;;;;;;;;;3.00;3.00;;;;;;;;5059190;28;45215;-78
2022/03/12 04:11:38;;;;;;;;;3.00;3.00;;;;;;;;5057619;28;48103;-78
2022/03/12 04:14:05;;;;;;;;;3.00;3.00;;;;;;;;5060466;28;45476;-79
2022/03/12 04:16:31;;;;;;;;;3.00;2.67;;;;;;;;5077631;28;45331;-78
2022/03/12 04:18:57;;;;;;;;;5.00;5.00;;;;;;;;5082436;27;45903;-78
2022/03/12 04:21:22;;;;;;;;;2.00;2.00;;;;;;;;5081173;28;47892;-78
2022/03/12 04:23:49;;;;;;;;;4.00;3.33;;;;;;;;5082709;27;45371;-78
2022/03/12 04:26:14;;;;;;;;;4.00;3.00;;;;;;;;5082751;27;45282;-78
2022/03/12 04:28:40;;;;;;;;;2.00;2.00;;;;;;;;5082565;28;45194;-78
2022/03/12 04:31:07;;;;;;;;;3.67;3.00;;;;;;;;5082554;28;45218;-78
2022/03/12 04:33:32;;;;;;;;;2.00;2.00;;;;;;;;5080986;28;45265;-78
2022/03/12 04:35:58;;;;;;;;;2.00;2.00;;;;;;;;5082374;27;45286;-79
2022/03/12 04:38:25;;;;;;;;;4.00;3.00;;;;;;;;5082484;28;45376;-79
2022/03/12 04:40:50;;;;;;;;;3.67;2.33;;;;;;;;5082524;27;46125;-79
2022/03/12 04:43:16;;;;;;;;;3.00;2.00;;;;;;;;5082289;28;45349;-78
2022/03/12 04:45:42;;;;;;;;;2.33;2.33;;;;;;;;5082643;28;45476;-78
2022/03/12 04:48:09;;;;;;;;;2.00;2.00;;;;;;;;5082377;27;45842;-79
2022/03/12 04:50:34;;;;;;;;;2.00;2.00;;;;;;;;5082257;27;46277;-78
2022/03/12 04:53:00;;;;;;;;;3.67;3.67;;;;;;;;5082034;27;45301;-79
2022/03/12 04:55:26;;;;;;;;;3.00;3.00;;;;;;;;5082332;27;45319;-78
2022/03/12 04:57:55;;;;;;;;;3.33;1.67;;;;;;;;5080841;28;47059;-78
2022/03/12 05:00:27;;;;;;;;;1.33;1.33;;;;;;;;5080581;28;48353;-78
2022/03/12 05:02:53;;;;;;;;;2.33;1.33;;;;;;;;5082125;27;45214;-79
2022/03/12 05:05:19;;;;;;;;;2.33;2.00;;;;;;;;5082344;27;45282;-78
2022/03/12 05:07:48;;;;;;;;;3.00;3.00;;;;;;;;5081593;27;45439;-78
2022/03/12 05:10:13;;;;;;;;;2.00;2.00;;;;;;;;5070284;27;45945;-77
2022/03/12 05:12:43;;;;;;;;;1.00;1.00;;;;;;;;5056390;28;45340;-78
2022/03/12 05:15:14;;;;;;;;;1.33;1.33;;;;;;;;5064857;28;45490;-78
2022/03/12 05:17:44;;;;;;;;;2.67;2.67;;;;;;;;5067396;27;45231;-79
2022/03/12 05:20:11;;;;;;;;;3.00;2.00;;;;;;;;5061544;28;45364;-78
2022/03/12 05:22:36;;;;;;;;;2.33;2.00;;;;;;;;5061274;28;45472;-78
2022/03/12 05:25:02;;;;;;;;;2.00;2.00;;;;;;;;5061203;28;45464;-79
2022/03/12 05:27:27;;;;;;;;;2.00;2.00;;;;;;;;5048722;28;45334;-78
2022/03/12 05:29:54;;;;;;;;;3.33;3.00;;;;;;;;5061181;28;45462;-79
2022/03/12 05:32:19;;;;;;;;;4.67;4.67;;;;;;;;5060102;28;45645;-77
2022/03/12 05:34:44;;;;;;;;;4.67;3.00;;;;;;;;5060066;28;45263;-78
2022/03/12 05:37:10;;;;;;;;;5.00;3.00;;;;;;;;5061023;28;45321;-77
2022/03/12 05:39:36;;;;;;;;;3.67;3.67;;;;;;;;5060052;28;47263;-77
2022/03/12 05:42:05;;;;;;;;;3.00;3.00;;;;;;;;5060225;28;45736;-77
2022/03/12 05:44:32;;;;;;;;;2.00;2.00;;;;;;;;5046588;28;45362;-77
2022/03/12 05:46:57;;;;;;;;;2.67;2.67;;;;;;;;5039474;28;45443;-78
2022/03/12 05:49:22;;;;;;;;;3.00;3.00;;;;;;;;5040965;28;45404;-77
2022/03/12 05:51:47;;;;;;;;;4.67;4.67;;;;;;;;5049569;28;45541;-77
2022/03/12 05:54:12;;;;;;;;;3.67;3.00;;;;;;;;5061057;28;45353;-77
2022/03/12 05:56:40;;;;;;;;;3.00;3.00;;;;;;;;5061044;28;45288;-77
2022/03/12 05:59:05;;;;;;;;;4.00;4.00;;;;;;;;5060914;28;45348;-77
2022/03/12 06:01:30;;;;;;;;;3.67;3.67;;;;;;;;5060945;28;45328;-77
2022/03/12 06:03:55;;;;;;;;;3.33;2.67;;;;;;;;5061035;28;45362;-77
2022/03/12 06:06:30;;;;;;;;;4.33;4.33;;;;;;;;5055563;28;46191;-77
2022/03/12 06:08:58;;;;;;;;;5.67;4.00;;;;;;;;5040110;28;45706;-76
2022/03/12 06:11:27;;;;;;;;;3.00;3.00;;;;;;;;5040586;28;45359;-77
2022/03/12 06:13:54;;;;;;;;;4.00;3.00;;;;;;;;5056122;28;45459;-78
2022/03/12 06:16:20;;;;;;;;;4.00;4.00;;;;;;;;5070255;28;45240;-77
2022/03/12 06:18:45;;;;;;;;;4.00;3.67;;;;;;;;5079484;28;46339;-77
2022/03/12 06:21:10;;;;;;;;;4.33;3.33;;;;;;;;5068870;27;45421;-78
2022/03/12 06:23:36;;;;;;;;;4.00;4.00;;;;;;;;5059268;28;45324;-79
2022/03/12 06:26:04;;;;;;;;;2.67;2.67;;;;;;;;5055478;28;45536;-79
2022/03/12 06:28:30;;;;;;;;;3.00;3.00;;;;;;;;5057539;28;46161;-78
2022/03/12 06:30:55;;;;;;;;;3.67;3.67;;;;;;;;5058184;28;45343;-78
2022/03/12 06:33:22;;;;;;;;;2.33;2.33;;;;;;;;5059377;28;45797;-76
2022/03/12 06:35:47;;;;;;;;;2.00;2.00;;;;;;;;5058856;28;45608;-77
2022/03/12 06:38:17;;;;;;;;;3.00;3.00;;;;;;;;5059415;28;46074;-78
2022/03/12 06:40:43;;;;;;;;;3.67;3.67;;;;;;;;5060400;28;45309;-78
2022/03/12 06:43:10;;;;;;;;;3.00;3.00;;;;;;;;5060379;28;45350;-76
2022/03/12 06:45:35;;;;;;;;;4.67;4.00;;;;;;;;5060085;28;45324;-77
2022/03/12 06:48:01;;;;;;;;;1.00;1.00;;;;;;;;5061091;28;46178;-79
2022/03/12 06:50:27;;;;;;;;;2.33;2.33;;;;;;;;5069604;28;45393;-79
2022/03/12 06:52:53;;;;;;;;;3.00;3.00;;;;;;;;5063366;28;45430;-81
2022/03/12 06:55:20;;;;;;;;;4.00;4.00;;;;;;;;5077102;28;45019;-82
2022/03/12 06:57:47;;;;;;;;;2.33;2.33;;;;;;;;5079705;28;45212;-82
2022/03/12 07:00:14;;;;;;;;;3.00;3.00;;;;;;;;5073176;28;45528;-81
2022/03/12 07:02:39;;;;;;;;;1.67;1.67;;;;;;;;5074614;28;45466;-82
2022/03/12 07:05:05;;;;;;;;;4.33;3.00;;;;;;;;5073229;28;46056;-82
2022/03/12 07:07:30;;;;;;;;;3.00;3.00;;;;;;;;5072196;28;45325;-84
2022/03/12 07:09:55;;;;;;;;;4.67;3.00;;;;;;;;5067033;28;45322;-83
2022/03/12 07:12:21;;;;;;;;;3.00;3.00;;;;;;;;5063601;28;45271;-85
2022/03/12 07:14:46;;;;;;;;;3.00;3.00;;;;;;;;5066916;28;46945;-84
2022/03/12 07:17:11;;;;;;;;;3.00;3.00;;;;;;;;5068292;28;45900;-84
2022/03/12 07:19:37;;;;;;;;;3.67;3.67;;;;;;;;5068839;28;45423;-84
2022/03/12 07:22:02;;;;;;;;;3.33;2.67;;;;;;;;5064266;28;45463;-83
2022/03/12 07:24:28;;;;;;;;;3.33;3.33;;;;;;;;5065965;28;45889;-84
2022/03/12 07:26:53;;;;;;;;;4.00;3.00;;;;;;;;5063337;28;46333;-86
2022/03/12 07:29:18;;;;;;;;;5.00;3.67;;;;;;;;5055996;28;45642;-85
2022/03/12 07:31:43;;;;;;;;;4.00;4.00;;;;;;;;5063022;28;45652;-83
2022/03/12 07:34:08;;;;;;;;;3.00;3.00;;;;;;;;5060447;28;46137;-82
2022/03/12 07:36:34;;;;;;;;;2.67;2.67;;;;;;;;5061647;28;45333;-80
2022/03/12 07:39:03;;;;;;;;;3.00;3.00;;;;;;;;5068689;28;45247;-84
2022/03/12 07:41:28;;;;;;;;;0.67;0.67;;;;;;;;5063705;28;45468;-82
2022/03/12 07:43:53;;;;;;;;;4.00;4.00;;;;;;;;5067468;28;45287;-83
2022/03/12 07:46:19;;;;;;;;;2.00;2.00;;;;;;;;5062342;28;46110;-82
2022/03/12 07:48:44;;;;;;;;;4.00;4.00;;;;;;;;5074688;28;45615;-83
2022/03/12 07:51:09;;;;;;;;;3.67;3.67;;;;;;;;5073504;28;45306;-83
2022/03/12 07:53:36;;;;;;;;;3.00;3.00;;;;;;;;5069436;28;45440;-81
2022/03/12 07:56:02;;;;;;;;;3.00;3.00;;;;;;;;5067171;28;45483;-82
2022/03/12 07:58:28;;;;;;;;;3.00;3.00;;;;;;;;5072222;28;45473;-83
2022/03/12 08:00:58;;;;;;;;;4.00;4.00;;;;;;;;5071871;28;45418;-82
2022/03/12 08:03:23;;;;;;;;;4.00;4.00;;;;;;;;5057293;28;45598;-81
2022/03/12 08:05:49;;;;;;;;;2.00;2.00;;;;;;;;5073852;28;48308;-80
2022/03/12 08:08:14;;;;;;;;;3.67;3.67;;;;;;;;5058340;28;45552;-81
2022/03/12 08:13:23;;;;;;;;;3.00;3.00;;;;;;;;5074818;28;45456;-81
2022/03/12 08:15:49;;;;;;;;;2.00;2.00;;;;;;;;5089468;28;45261;-82
2022/03/12 08:18:14;;;;;;;;;2.00;2.00;;;;;;;;5093976;27;45177;-81
2022/03/12 08:20:39;;;;;;;;;4.00;3.00;;;;;;;;5095936;28;45483;-81
2022/03/12 08:23:05;;;;;;;;;5.67;4.67;;;;;;;;5078912;27;45402;-81
2022/03/12 08:25:30;;;;;;;;;5.00;5.00;;;;;;;;5075177;28;45284;-81
2022/03/12 08:27:55;;;;;;;;;5.67;5.00;;;;;;;;5073813;28;45266;-82
2022/03/12 08:30:21;;;;;;;;;4.33;4.00;;;;;;;;5074002;28;45291;-82
2022/03/12 08:32:46;;;;;;;;;1.33;1.33;;;;;;;;5070799;28;45334;-83
2022/03/12 08:35:13;;;;;;;;;5.00;4.00;;;;;;;;5063729;28;47052;-82
2022/03/12 08:37:39;;;;;;;;;3.00;2.00;;;;;;;;5061939;28;45362;-83
2022/03/12 08:40:06;;;;;;;;;4.00;2.67;;;;;;;;5068912;28;45259;-81
2022/03/12 08:42:31;;;;;;;;;6.00;4.67;;;;;;;;5073820;28;45230;-80
2022/03/12 08:44:56;;;;;;;;;4.00;4.00;;;;;;;;5086588;28;47276;-83
2022/03/12 08:47:21;;;;;;;;;3.67;3.67;;;;;;;;5071662;28;45175;-81
2022/03/12 08:49:47;;;;;;;;;3.00;3.00;;;;;;;;5068597;28;45566;-83
2022/03/12 08:52:12;;;;;;;;;3.67;3.67;;;;;;;;5073965;28;46481;-82
2022/03/12 08:54:37;;;;;;;;;5.00;3.33;;;;;;;;5078410;28;47975;-81
2022/03/12 08:57:02;;;;;;;;;4.00;4.00;;;;;;;;5078610;28;45373;-83
2022/03/12 08:59:28;;;;;;;;;3.00;3.00;;;;;;;;5077272;28;45563;-81
2022/03/12 09:01:53;;;;;;;;;6.00;4.67;;;;;;;;5068725;28;45295;-79
2022/03/12 09:04:19;;;;;;;;;5.33;5.00;;;;;;;;5075259;28;47100;-80
2022/03/12 09:06:45;;;;;;;;;5.67;3.00;;;;;;;;5069880;28;45424;-82
2022/03/12 09:09:11;;;;;;;;;3.00;3.00;;;;;;;;5072845;28;45276;-82
2022/03/12 09:11:37;;;;;;;;;4.00;3.00;;;;;;;;5069794;28;45538;-82
2022/03/12 09:14:02;;;;;;;;;6.00;4.67;;;;;;;;5071771;28;45335;-81
2022/03/12 09:16:27;;;;;;;;;4.00;4.00;;;;;;;;5074379;28;45345;-81
2022/03/12 09:18:53;;;;;;;;;7.00;7.00;;;;;;;;5070968;28;45448;-80
2022/03/12 09:21:18;;;;;;;;;6.00;6.00;;;;;;;;5076897;28;45290;-81
2022/03/12 09:23:43;;;;;;;;;4.00;4.00;;;;;;;;5070834;28;45360;-81
2022/03/12 09:26:09;;;;;;;;;4.00;4.00;;;;;;;;5080160;28;45286;-80
2022/03/12 09:28:35;;;;;;;;;4.67;4.00;;;;;;;;5076020;28;45500;-81
2022/03/12 09:31:00;;;;;;;;;4.00;4.00;;;;;;;;5065630;28;46563;-82
2022/03/12 09:33:26;;;;;;;;;5.33;5.33;;;;;;;;5067257;28;46674;-81
2022/03/12 09:35:53;;;;;;;;;3.00;3.00;;;;;;;;5078616;28;45152;-81
2022/03/12 09:38:18;;;;;;;;;5.00;5.00;;;;;;;;5073553;28;45239;-81
2022/03/12 09:40:45;;;;;;;;;4.00;4.00;;;;;;;;5072786;28;45396;-80
2022/03/12 09:43:10;;;;;;;;;5.67;3.67;;;;;;;;5072465;28;46183;-80
2022/03/12 09:45:36;;;;;;;;;5.00;4.00;;;;;;;;5069614;28;45418;-81
2022/03/12 09:48:02;;;;;;;;;4.00;4.00;;;;;;;;5070909;28;45330;-81
2022/03/12 09:50:27;;;;;;;;;5.33;4.00;;;;;;;;5077215;28;45315;-81
2022/03/12 09:52:52;;;;;;;;;5.00;4.67;;;;;;;;5060583;28;45333;-81
2022/03/12 09:55:19;;;;;;;;;3.00;3.00;;;;;;;;5064263;28;45437;-81
2022/03/12 09:57:44;;;;;;;;;5.00;5.00;;;;;;;;5066696;28;45444;-81
2022/03/12 10:00:11;;;;;;;;;5.33;5.00;;;;;;;;5072383;28;45540;-80
2022/03/12 10:02:36;;;;;;;;;5.33;4.00;;;;;;;;5073820;28;46450;-83
2022/03/12 10:05:02;;;;;;;;;5.00;4.00;;;;;;;;5066316;28;45382;-83
2022/03/12 10:07:28;;;;;;;;;6.00;5.33;;;;;;;;5072615;28;45700;-79
2022/03/12 10:09:53;;;;;;;;;6.00;6.00;;;;;;;;5071342;28;45528;-82
2022/03/12 10:12:19;;;;;;;;;6.00;5.67;;;;;;;;5074309;28;49929;-81
2022/03/12 10:14:45;;;;;;;;;5.33;5.00;;;;;;;;5071481;28;45435;-82
2022/03/12 10:17:11;;;;;;;;;7.67;4.00;;;;;;;;5067890;28;45740;-83
2022/03/12 10:19:38;;;;;;;;;6.00;5.67;;;;;;;;5067343;28;46338;-82
2022/03/12 10:22:05;;;;;;;;;4.00;4.00;;;;;;;;5063717;28;46006;-82
2022/03/12 10:24:30;;;;;;;;;5.00;4.33;;;;;;;;5071473;28;45236;-83
2022/03/12 10:26:56;;;;;;;;;5.00;3.33;;;;;;;;5069984;28;45210;-85
2022/03/12 10:29:21;;;;;;;;;3.00;3.00;;;;;;;;5063591;28;46301;-81
2022/03/12 10:31:46;;;;;;;;;6.67;3.67;;;;;;;;5064742;28;46652;-82
2022/03/12 10:34:17;;;;;;;;;2.33;2.33;;;;;;;;5063443;28;45202;-83
2022/03/12 10:36:42;;;;;;;;;2.00;2.00;;;;;;;;5066674;28;45333;-82
2022/03/12 10:39:09;;;;;;;;;2.33;2.33;;;;;;;;5067994;28;45528;-82
2022/03/12 10:41:35;;;;;;;;;3.33;3.33;;;;;;;;5065800;28;45243;-83
2022/03/12 10:44:00;;;;;;;;;0.00;0.00;;;;;;;;5063543;28;45292;-82
2022/03/12 10:46:27;;;;;;;;;6.67;6.00;;;;;;;;5071894;28;45338;-83
2022/03/12 10:48:56;;;;;;;;;5.00;2.67;;;;;;;;5071761;28;46081;-80
2022/03/12 10:51:26;;;;;;;;;31.67;30.67;;;;;;;;5074514;28;45933;-81
2022/03/12 10:53:51;;;;;;;;;12.00;11.00;;;;;;;;5079074;28;44856;-81
2022/03/12 10:56:17;;;;;;;;;4.00;4.00;;;;;;;;5070033;28;45246;-82
2022/03/12 10:58:42;;;;;;;;;6.67;5.67;;;;;;;;5067819;28;46378;-84
2022/03/12 11:01:08;;;;;;;;;4.67;4.67;;;;;;;;5053955;28;45250;-79
2022/03/12 11:03:34;;;;;;;;;4.00;4.00;;;;;;;;5068602;28;45331;-81
2022/03/12 11:06:00;;;;;;;;;6.00;6.00;;;;;;;;5066264;28;45259;-81
2022/03/12 11:08:32;;;;;;;;;3.67;3.67;;;;;;;;5066038;28;45672;-79
2022/03/12 11:11:00;;;;;;;;;5.00;4.33;;;;;;;;5070155;28;48754;-79
2022/03/12 11:13:49;;;;;;;;;4.33;4.33;;;;;;;;5061839;28;45324;-80
2022/03/12 11:16:32;;;;;;;;;5.67;5.67;;;;;;;;5064500;28;45312;-79
2022/03/12 11:19:08;;;;;;;;;5.00;5.00;;;;;;;;5073091;28;45282;-80
2022/03/12 11:21:37;;;;;;;;;5.67;5.67;;;;;;;;5071649;28;46189;-79
2022/03/12 11:24:15;;;;;;;;;8.00;5.33;;;;;;;;5065476;28;45354;-80
2022/03/12 11:26:59;;;;;;;;;6.00;6.00;;;;;;;;5068616;28;45394;-80
2022/03/12 11:29:28;;;;;;;;;5.33;5.33;;;;;;;;5062058;28;45429;-80
2022/03/12 11:31:56;;;;;;;;;7.67;7.67;;;;;;;;5059663;28;48215;-80
2022/03/12 11:34:23;;;;;;;;;4.67;4.67;;;;;;;;5065524;28;45345;-80
2022/03/12 11:36:55;;;;;;;;;7.00;7.00;;;;;;;;5063349;28;45280;-80
2022/03/12 11:39:26;;;;;;;;;6.33;5.00;;;;;;;;5064331;28;45421;-80
2022/03/12 11:42:01;;;;;;;;;9.33;8.33;;;;;;;;5068461;28;47453;-80
2022/03/12 11:44:27;;;;;;;;;9.67;8.33;;;;;;;;5075709;28;44851;-80
2022/03/12 11:46:52;;;;;;;;;5.67;5.00;;;;;;;;5071626;28;45281;-81
2022/03/12 11:49:18;;;;;;;;;7.67;7.00;;;;;;;;5078759;28;45384;-80
2022/03/12 11:51:44;;;;;;;;;7.33;7.33;;;;;;;;5074803;28;46059;-82
2022/03/12 11:54:09;;;;;;;;;9.00;6.00;;;;;;;;5065195;28;45318;-81
2022/03/12 11:56:35;;;;;;;;;9.67;9.00;;;;;;;;5072098;28;45587;-81
2022/03/12 11:59:00;;;;;;;;;8.00;8.00;;;;;;;;5065770;28;46882;-80
2022/03/12 12:01:25;;;;;;;;;8.67;8.67;;;;;;;;5064121;28;47155;-81
2022/03/12 12:03:50;;;;;;;;;7.33;7.33;;;;;;;;5064578;28;45497;-79
2022/03/12 12:06:16;;;;;;;;;5.00;5.00;;;;;;;;5065278;28;45428;-80
2022/03/12 12:08:43;;;;;;;;;5.67;5.67;;;;;;;;5059443;28;46427;-80
2022/03/12 12:11:08;;;;;;;;;7.67;7.67;;;;;;;;5063396;28;47940;-81
2022/03/12 12:13:33;;;;;;;;;8.33;8.00;;;;;;;;5072224;28;45320;-80
2022/03/12 12:15:59;;;;;;;;;6.33;6.33;;;;;;;;5069705;28;45350;-81
2022/03/12 12:18:25;;;;;;;;;7.00;7.00;;;;;;;;5064465;28;46237;-81
2022/03/12 12:20:50;;;;;;;;;7.00;7.00;;;;;;;;5057263;28;45470;-81
2022/03/12 12:23:19;;;;;;;;;9.00;8.00;;;;;;;;5062980;28;45301;-81
2022/03/12 12:25:45;;;;;;;;;7.67;7.67;;;;;;;;5060870;28;45325;-79
2022/03/12 12:28:13;;;;;;;;;7.00;6.67;;;;;;;;5057640;28;45651;-82
2022/03/12 12:30:42;;;;;;;;;6.33;5.33;;;;;;;;5060646;28;45374;-79
2022/03/12 12:33:15;;;;;;;;;10.33;9.00;;;;;;;;5064759;28;45472;-79
2022/03/12 12:35:41;;;;;;;;;9.33;8.33;;;;;;;;5072891;28;45366;-79
2022/03/12 12:38:10;;;;;;;;;6.00;6.00;;;;;;;;5076428;28;44901;-78
2022/03/12 12:40:41;;;;;;;;;6.00;6.00;;;;;;;;5074588;28;48329;-79
2022/03/12 12:43:09;;;;;;;;;6.33;6.33;;;;;;;;5074601;28;45330;-77
2022/03/12 12:45:42;;;;;;;;;8.00;7.00;;;;;;;;5078935;28;45225;-77
2022/03/12 12:48:09;;;;;;;;;7.00;7.00;;;;;;;;5067731;28;46040;-77
2022/03/12 12:50:35;;;;;;;;;8.33;8.33;;;;;;;;5069642;28;46385;-77
2022/03/12 12:53:09;;;;;;;;;9.33;9.33;;;;;;;;5062597;28;45564;-77
2022/03/12 12:55:35;;;;;;;;;8.00;8.00;;;;;;;;5071950;28;45405;-80
2022/03/12 12:58:01;;;;;;;;;7.67;7.67;;;;;;;;5068976;28;45601;-81
2022/03/12 13:00:26;;;;;;;;;7.33;6.67;;;;;;;;5063492;28;45361;-79
2022/03/12 13:02:54;;;;;;;;;8.67;8.67;;;;;;;;5060208;28;45397;-80
2022/03/12 13:05:23;;;;;;;;;7.33;7.33;;;;;;;;5060684;28;45346;-80
2022/03/12 13:08:01;;;;;;;;;6.00;6.00;;;;;;;;5060614;28;45247;-79
2022/03/12 13:10:28;;;;;;;;;7.00;6.33;;;;;;;;5059824;28;48149;-79
2022/03/12 13:13:15;;;;;;;;;8.00;8.00;;;;;;;;5060976;28;45852;-77
2022/03/12 13:15:42;;;;;;;;;6.67;6.67;;;;;;;;5071432;28;45316;-77
2022/03/12 13:18:34;;;;;;;;;9.00;8.67;;;;;;;;5084581;27;45374;-78
2022/03/12 13:20:59;;;;;;;;;8.00;8.00;;;;;;;;5079683;27;46368;-79
2022/03/12 13:23:44;;;;;;;;;7.33;7.33;;;;;;;;5081896;27;45280;-78
2022/03/12 13:26:17;;;;;;;;;7.67;7.67;;;;;;;;5081999;27;45487;-81
2022/03/12 13:28:44;;;;;;;;;8.00;8.00;;;;;;;;5084298;28;45336;-79
2022/03/12 13:31:28;;;;;;;;;7.67;7.67;;;;;;;;5085422;28;45460;-77
2022/03/12 13:34:12;;;;;;;;;7.00;7.00;;;;;;;;5084263;28;45338;-78
2022/03/12 13:36:44;;;;;;;;;7.00;7.00;;;;;;;;5082401;27;45333;-78
2022/03/12 13:39:11;;;;;;;;;7.00;7.00;;;;;;;;5066072;27;45594;-79
2022/03/12 13:41:37;;;;;;;;;9.00;9.00;;;;;;;;5063386;28;45290;-80
2022/03/12 13:44:02;;;;;;;;;6.00;6.00;;;;;;;;5062823;28;45255;-79
2022/03/12 13:46:29;;;;;;;;;9.67;7.33;;;;;;;;5061858;28;45424;-79
2022/03/12 13:48:58;;;;;;;;;9.00;9.00;;;;;;;;5060870;28;46194;-79
2022/03/12 13:51:23;;;;;;;;;6.67;6.67;;;;;;;;5061535;28;45295;-78
2022/03/12 13:53:52;;;;;;;;;8.33;8.33;;;;;;;;5061529;28;45818;-79
2022/03/12 13:56:18;;;;;;;;;10.67;10.67;;;;;;;;5061277;28;45340;-78
2022/03/12 13:58:45;;;;;;;;;7.00;7.00;;;;;;;;5062908;28;45306;-81
2022/03/12 14:01:16;;;;;;;;;8.00;8.00;;;;;;;;5062337;28;47640;-79
2022/03/12 14:03:47;;;;;;;;;8.00;8.00;;;;;;;;5062235;28;45659;-79
2022/03/12 14:06:31;;;;;;;;;11.67;11.67;;;;;;;;5067733;28;45353;-81
2022/03/12 14:08:57;;;;;;;;;9.33;8.33;;;;;;;;5063282;28;45446;-79
2022/03/12 14:11:30;;;;;;;;;9.67;8.00;;;;;;;;5060337;28;46935;-79
2022/03/12 14:13:59;;;;;;;;;8.00;8.00;;;;;;;;5061902;28;45314;-80
2022/03/12 14:16:27;;;;;;;;;9.67;8.33;;;;;;;;5059348;28;45334;-79
2022/03/12 14:18:59;;;;;;;;;10.00;8.67;;;;;;;;5061230;28;45294;-78
2022/03/12 14:21:37;;;;;;;;;8.00;8.00;;;;;;;;5060184;28;45551;-78
2022/03/12 14:24:09;;;;;;;;;10.33;10.33;;;;;;;;5060511;28;45341;-79
2022/03/12 14:26:53;;;;;;;;;10.67;10.67;;;;;;;;5059111;28;45504;-78
2022/03/12 14:29:20;;;;;;;;;13.33;10.67;;;;;;;;5059107;28;46050;-78
2022/03/12 14:31:45;;;;;;;;;9.00;9.00;;;;;;;;5060650;28;45321;-77
2022/03/12 14:34:13;;;;;;;;;9.00;8.00;;;;;;;;5062027;28;45252;-79
2022/03/12 14:36:42;;;;;;;;;6.33;6.33;;;;;;;;5062403;28;44760;-79
2022/03/12 14:39:07;;;;;;;;;7.67;6.33;;;;;;;;5065183;28;45321;-77
2022/03/12 14:41:32;;;;;;;;;4.67;4.67;;;;;;;;5063178;28;48050;-80
2022/03/12 14:43:57;;;;;;;;;5.00;5.00;;;;;;;;5066769;28;45318;-79
2022/03/12 14:46:23;;;;;;;;;8.00;8.00;;;;;;;;5066126;28;45451;-80
2022/03/12 14:48:49;;;;;;;;;6.33;6.33;;;;;;;;5060566;28;45925;-81